createdAt,value
2017-08-07T00:00:15.278Z,99.90
2017-08-07T00:02:44.228Z,99.90
2017-08-07T00:05:13.169Z,99.90
2017-08-07T00:07:42.094Z,99.90
2017-08-07T00:10:11.001Z,99.90
2017-08-07T00:12:39.926Z,99.90
2017-08-07T00:15:08.884Z,99.90
2017-08-07T00:17:37.828Z,99.90
2017-08-07T00:20:06.771Z,99.90
2017-08-07T00:22:35.736Z,99.90
2017-08-07T00:25:04.776Z,99.90
2017-08-07T00:27:33.715Z,99.90
2017-08-07T00:30:02.677Z,99.90
2017-08-07T00:32:31.866Z,99.90
2017-08-07T00:35:00.759Z,99.90
2017-08-07T00:37:29.738Z,99.90
2017-08-07T00:39:58.649Z,99.90
2017-08-07T00:42:27.596Z,99.90
2017-08-07T00:44:56.771Z,99.90
2017-08-07T00:47:25.699Z,99.90
2017-08-07T00:49:54.942Z,99.90
2017-08-07T00:52:23.887Z,99.90
2017-08-07T00:54:53.104Z,99.90
2017-08-07T00:57:22.007Z,99.90
2017-08-07T00:59:50.935Z,99.90
2017-08-07T01:02:19.887Z,99.90
2017-08-07T01:04:48.789Z,99.90
2017-08-07T01:07:17.733Z,99.90
2017-08-07T01:09:46.903Z,99.90
2017-08-07T01:12:15.784Z,99.90
2017-08-07T01:14:44.714Z,99.90
2017-08-07T01:17:13.623Z,99.90
2017-08-07T01:19:42.514Z,99.90
2017-08-07T01:22:11.757Z,99.90
2017-08-07T01:24:40.931Z,99.90
2017-08-07T01:27:09.937Z,99.90
2017-08-07T01:29:38.859Z,99.90
2017-08-07T01:32:08.041Z,99.90
2017-08-07T01:34:37.067Z,99.90
2017-08-07T01:37:06.053Z,99.90
2017-08-07T01:39:34.975Z,99.90
2017-08-07T01:42:03.923Z,99.90
2017-08-07T01:44:47.406Z,99.90
2017-08-07T01:47:16.380Z,99.90
2017-08-07T01:49:45.385Z,99.90
2017-08-07T01:52:14.750Z,99.90
2017-08-07T01:54:43.719Z,99.90
2017-08-07T01:57:12.728Z,99.90
2017-08-07T02:00:12.546Z,99.90
2017-08-07T02:02:41.776Z,99.90
2017-08-07T02:05:10.676Z,99.90
2017-08-07T02:07:39.574Z,99.90
2017-08-07T02:10:08.807Z,99.90
2017-08-07T02:12:37.749Z,99.90
2017-08-07T02:15:06.611Z,99.90
2017-08-07T02:17:35.524Z,99.90
2017-08-07T02:20:04.456Z,99.90
2017-08-07T02:22:33.363Z,99.90
2017-08-07T02:25:02.283Z,99.90
2017-08-07T02:27:32.584Z,99.90
2017-08-07T02:30:01.519Z,99.90
2017-08-07T02:32:30.451Z,99.90
2017-08-07T02:34:59.370Z,99.90
2017-08-07T02:37:28.320Z,99.90
2017-08-07T02:39:57.287Z,99.90
2017-08-07T02:42:26.428Z,99.90
2017-08-07T02:44:55.709Z,99.90
2017-08-07T02:47:24.648Z,99.90
2017-08-07T02:49:53.535Z,99.90
2017-08-07T02:52:22.448Z,99.90
2017-08-07T02:54:51.400Z,99.90
2017-08-07T02:57:20.307Z,99.90
2017-08-07T02:59:49.674Z,99.90
2017-08-07T03:02:18.531Z,99.90
2017-08-07T03:04:47.501Z,99.90
2017-08-07T03:07:16.420Z,99.90
2017-08-07T03:09:45.317Z,99.90
2017-08-07T03:12:14.276Z,99.90
2017-08-07T03:14:43.188Z,99.90
2017-08-07T03:17:12.087Z,99.90
2017-08-07T03:19:41.527Z,99.90
2017-08-07T03:22:10.643Z,99.90
2017-08-07T03:24:39.519Z,99.90
2017-08-07T03:27:08.443Z,99.90
2017-08-07T03:29:37.758Z,99.90
2017-08-07T03:32:06.881Z,99.90
2017-08-07T03:34:35.789Z,99.90
2017-08-07T03:37:04.711Z,99.90
2017-08-07T03:39:33.627Z,99.90
2017-08-07T03:42:02.559Z,99.90
2017-08-07T03:44:31.512Z,99.90
2017-08-07T03:47:00.430Z,99.90
2017-08-07T03:49:29.328Z,99.90
2017-08-07T03:51:58.388Z,99.90
2017-08-07T03:54:27.354Z,99.90
2017-08-07T03:56:56.267Z,99.90
2017-08-07T03:59:25.173Z,99.90
2017-08-07T04:01:54.097Z,99.90
2017-08-07T04:04:23.024Z,99.90
2017-08-07T04:06:51.901Z,99.90
2017-08-07T04:09:20.815Z,99.90
2017-08-07T04:11:49.750Z,99.90
2017-08-07T04:14:18.683Z,99.90
2017-08-07T04:16:47.679Z,99.90
2017-08-07T04:19:16.626Z,99.90
2017-08-07T04:21:45.559Z,99.90
2017-08-07T04:24:14.499Z,99.90
2017-08-07T04:26:43.434Z,99.90
2017-08-07T04:29:12.374Z,99.90
2017-08-07T04:31:41.318Z,99.90
2017-08-07T04:34:10.233Z,99.90
2017-08-07T04:36:39.122Z,99.90
2017-08-07T04:39:08.079Z,99.90
2017-08-07T04:41:37.010Z,99.90
2017-08-07T04:44:05.897Z,99.90
2017-08-07T04:46:37.258Z,99.90
2017-08-07T04:49:06.203Z,99.90
2017-08-07T04:51:35.107Z,99.90
2017-08-07T04:54:04.023Z,99.90
2017-08-07T04:56:32.966Z,99.90
2017-08-07T04:59:01.913Z,99.90
2017-08-07T05:01:30.839Z,99.90
2017-08-07T05:03:59.796Z,99.90
2017-08-07T05:06:28.708Z,99.90
2017-08-07T05:08:57.654Z,99.90
2017-08-07T05:11:26.614Z,99.90
2017-08-07T05:13:55.591Z,99.90
2017-08-07T05:16:24.576Z,99.90
2017-08-07T05:18:53.564Z,99.90
2017-08-07T05:21:22.583Z,99.90
2017-08-07T05:23:51.547Z,99.90
2017-08-07T05:26:20.592Z,99.90
2017-08-07T05:28:49.593Z,99.90
2017-08-07T05:31:18.623Z,99.90
2017-08-07T05:33:47.714Z,99.90
2017-08-07T05:36:16.679Z,99.90
2017-08-07T05:38:45.598Z,99.90
2017-08-07T05:41:14.528Z,99.90
2017-08-07T05:43:43.508Z,99.90
2017-08-07T05:46:12.459Z,99.90
2017-08-07T05:48:41.487Z,99.90
2017-08-07T05:51:10.834Z,99.90
2017-08-07T05:53:39.756Z,99.90
2017-08-07T05:56:08.712Z,99.90
2017-08-07T05:58:37.662Z,99.90
2017-08-07T06:01:06.628Z,99.90
2017-08-07T06:03:35.568Z,99.90
2017-08-07T06:06:04.579Z,98.80
2017-08-07T06:08:33.496Z,97.80
2017-08-07T06:11:02.419Z,96.50
2017-08-07T06:13:31.316Z,94.90
2017-08-07T06:16:00.263Z,93.30
2017-08-07T06:18:29.215Z,91.40
2017-08-07T06:20:58.155Z,89.30
2017-08-07T06:23:27.055Z,85.30
2017-08-07T06:25:55.960Z,82.10
2017-08-07T06:28:24.907Z,79.10
2017-08-07T06:30:54.114Z,77.00
2017-08-07T06:33:23.000Z,76.00
2017-08-07T06:35:51.948Z,73.80
2017-08-07T06:38:20.943Z,70.70
2017-08-07T06:40:49.894Z,68.00
2017-08-07T06:43:18.853Z,67.80
2017-08-07T06:45:47.842Z,67.40
2017-08-07T06:48:16.770Z,65.80
2017-08-07T06:50:45.731Z,63.00
2017-08-07T06:53:14.959Z,60.50
2017-08-07T06:55:43.864Z,59.80
2017-08-07T06:58:12.791Z,58.70
2017-08-07T07:00:41.676Z,57.10
2017-08-07T07:03:10.589Z,55.90
2017-08-07T07:05:39.500Z,54.20
2017-08-07T07:08:08.475Z,53.20
2017-08-07T07:10:37.545Z,53.30
2017-08-07T07:13:06.443Z,53.50
2017-08-07T07:15:35.399Z,53.00
2017-08-07T07:18:04.331Z,51.70
2017-08-07T07:20:33.234Z,50.60
2017-08-07T07:23:02.208Z,49.50
2017-08-07T07:25:31.128Z,50.20
2017-08-07T07:28:00.057Z,49.70
2017-08-07T07:30:29.100Z,50.40
2017-08-07T07:32:58.073Z,50.50
2017-08-07T07:35:26.999Z,51.40
2017-08-07T07:37:55.997Z,53.90
2017-08-07T07:40:25.101Z,53.40
2017-08-07T07:42:54.071Z,54.80
2017-08-07T07:45:23.007Z,55.50
2017-08-07T07:47:51.918Z,56.10
2017-08-07T07:50:20.892Z,54.70
2017-08-07T07:52:49.929Z,52.70
2017-08-07T07:55:18.872Z,52.90
2017-08-07T07:57:47.826Z,51.90
2017-08-07T08:00:16.762Z,49.80
2017-08-07T08:02:45.696Z,48.00
2017-08-07T08:06:17.201Z,47.30
2017-08-07T08:08:46.187Z,46.30
2017-08-07T08:11:15.059Z,46.20
2017-08-07T08:13:43.973Z,44.00
2017-08-07T08:16:12.987Z,45.20
2017-08-07T08:18:41.920Z,44.40
2017-08-07T08:21:10.860Z,46.10
2017-08-07T08:23:39.860Z,46.40
2017-08-07T08:26:08.987Z,43.60
2017-08-07T08:28:38.001Z,46.10
2017-08-07T08:31:06.975Z,49.40
2017-08-07T08:33:35.938Z,46.10
2017-08-07T08:36:04.894Z,44.20
2017-08-07T08:38:33.999Z,42.90
2017-08-07T08:41:02.945Z,43.30
2017-08-07T08:43:31.892Z,45.30
2017-08-07T08:46:00.859Z,44.70
2017-08-07T08:48:29.849Z,43.30
2017-08-07T08:50:58.955Z,41.70
2017-08-07T08:53:28.156Z,40.60
2017-08-07T08:55:57.966Z,43.10
2017-08-07T08:58:26.955Z,41.00
2017-08-07T09:00:58.442Z,41.20
2017-08-07T09:03:27.488Z,41.50
2017-08-07T09:05:56.450Z,39.50
2017-08-07T09:08:26.687Z,43.00
2017-08-07T09:10:55.713Z,40.30
2017-08-07T09:13:24.683Z,38.40
2017-08-07T09:15:53.848Z,39.50
2017-08-07T09:18:22.872Z,37.50
2017-08-07T09:20:51.799Z,35.90
2017-08-07T09:23:20.788Z,38.10
2017-08-07T09:25:49.852Z,36.70
2017-08-07T09:28:18.868Z,39.10
2017-08-07T09:30:47.786Z,39.90
2017-08-07T09:33:16.760Z,35.30
2017-08-07T09:35:45.710Z,37.90
2017-08-07T09:38:14.688Z,36.70
2017-08-07T09:40:43.668Z,35.00
2017-08-07T09:43:12.686Z,33.20
2017-08-07T09:45:41.653Z,37.30
2017-08-07T09:48:10.707Z,35.10
2017-08-07T09:50:39.674Z,36.00
2017-08-07T09:54:11.358Z,37.00
2017-08-07T09:56:40.382Z,35.00
2017-08-07T09:59:09.301Z,35.10
2017-08-07T10:01:38.281Z,34.20
2017-08-07T10:04:07.253Z,34.00
2017-08-07T10:06:36.230Z,36.10
2017-08-07T10:09:05.616Z,32.40
2017-08-07T10:11:34.555Z,35.20
2017-08-07T10:14:03.665Z,36.60
2017-08-07T10:16:33.092Z,39.30
2017-08-07T10:21:41.627Z,40.10
2017-08-07T10:24:10.779Z,40.20
2017-08-07T10:26:40.077Z,38.20
2017-08-07T10:29:09.088Z,41.60
2017-08-07T10:31:38.457Z,34.20
2017-08-07T10:34:07.423Z,34.70
2017-08-07T10:36:36.550Z,35.00
2017-08-07T10:41:44.530Z,36.40
2017-08-07T10:44:13.591Z,35.80
2017-08-07T10:46:42.576Z,33.40
2017-08-07T10:49:13.829Z,32.90
2017-08-07T10:51:42.754Z,37.00
2017-08-07T10:54:11.725Z,34.60
2017-08-07T10:56:40.744Z,35.70
2017-08-07T10:59:09.868Z,33.60
2017-08-07T11:01:38.892Z,34.90
2017-08-07T11:04:07.977Z,34.60
2017-08-07T11:06:37.043Z,34.40
2017-08-07T11:09:06.177Z,35.40
2017-08-07T11:11:35.314Z,33.00
2017-08-07T11:14:04.385Z,33.70
2017-08-07T11:16:33.401Z,35.90
2017-08-07T11:19:02.405Z,36.10
2017-08-07T11:21:31.580Z,38.00
2017-08-07T11:24:00.771Z,38.50
2017-08-07T11:26:29.987Z,39.50
2017-08-07T11:28:59.018Z,37.30
2017-08-07T11:31:28.053Z,38.30
2017-08-07T11:33:57.073Z,39.60
2017-08-07T11:36:34.225Z,38.20
2017-08-07T11:39:03.347Z,39.60
2017-08-07T11:41:32.369Z,39.20
2017-08-07T11:44:01.505Z,38.00
2017-08-07T11:46:30.923Z,38.10
2017-08-07T11:49:00.672Z,39.70
2017-08-07T11:51:35.990Z,39.70
2017-08-07T11:54:05.012Z,42.10
2017-08-07T11:56:34.051Z,44.70
2017-08-07T11:59:03.050Z,44.20
2017-08-07T12:01:32.047Z,42.80
2017-08-07T12:04:01.104Z,44.10
2017-08-07T12:06:30.494Z,44.70
2017-08-07T12:08:59.520Z,45.90
2017-08-07T12:11:28.599Z,44.60
2017-08-07T12:13:57.580Z,45.40
2017-08-07T12:16:26.763Z,45.50
2017-08-07T12:18:55.966Z,43.10
2017-08-07T12:21:27.857Z,42.30
2017-08-07T12:23:59.795Z,46.90
2017-08-07T12:26:29.236Z,46.40
2017-08-07T12:28:58.320Z,44.60
2017-08-07T12:31:27.287Z,45.80
2017-08-07T12:33:58.222Z,45.00
2017-08-07T12:36:27.803Z,43.40
2017-08-07T12:38:57.246Z,44.30
2017-08-07T12:41:26.691Z,46.00
2017-08-07T12:43:55.870Z,45.50
2017-08-07T12:49:05.609Z,42.30
2017-08-07T12:51:34.830Z,45.90
2017-08-07T12:56:46.097Z,44.90
2017-08-07T12:59:20.252Z,46.00
2017-08-07T13:01:51.273Z,46.50
2017-08-07T13:04:20.912Z,44.20
2017-08-07T13:06:51.634Z,44.40
2017-08-07T13:09:23.070Z,44.20
2017-08-07T13:11:55.598Z,47.00
2017-08-07T13:14:25.900Z,48.00
2017-08-07T13:16:55.182Z,45.40
2017-08-07T13:19:24.718Z,47.90
2017-08-07T13:21:54.103Z,48.30
2017-08-07T13:24:23.704Z,45.50
2017-08-07T13:26:53.271Z,43.20
2017-08-07T13:29:22.636Z,43.90
2017-08-07T13:31:52.638Z,43.30
2017-08-07T13:34:21.801Z,44.10
2017-08-07T13:36:50.920Z,46.10
2017-08-07T13:39:19.978Z,45.30
2017-08-07T13:41:49.000Z,45.40
2017-08-07T13:44:18.430Z,46.20
2017-08-07T13:46:47.567Z,49.10
2017-08-07T13:49:16.654Z,46.70
2017-08-07T13:51:46.363Z,48.10
2017-08-07T13:54:15.442Z,48.80
2017-08-07T13:56:44.439Z,48.70
2017-08-07T13:59:14.184Z,50.80
2017-08-07T14:01:43.228Z,48.80
2017-08-07T14:04:12.279Z,48.80
2017-08-07T14:06:41.309Z,49.80
2017-08-07T14:09:10.309Z,47.80
2017-08-07T14:11:39.420Z,49.00
2017-08-07T14:14:08.465Z,49.80
2017-08-07T14:16:37.434Z,48.60
2017-08-07T14:19:06.479Z,46.40
2017-08-07T14:21:35.506Z,48.30
2017-08-07T14:24:04.684Z,48.20
2017-08-07T14:26:33.760Z,46.10
2017-08-07T14:29:02.824Z,46.50
2017-08-07T14:31:32.505Z,45.50
2017-08-07T14:34:01.676Z,46.90
2017-08-07T14:36:30.721Z,46.60
2017-08-07T14:38:59.727Z,50.40
2017-08-07T14:41:29.704Z,50.00
2017-08-07T14:43:58.763Z,46.30
2017-08-07T14:46:27.789Z,48.30
2017-08-07T14:48:56.964Z,46.80
2017-08-07T14:51:26.020Z,47.40
2017-08-07T14:53:54.988Z,47.40
2017-08-07T14:56:24.170Z,51.70
2017-08-07T14:58:53.157Z,48.50
2017-08-07T15:01:22.278Z,49.70
2017-08-07T15:03:51.613Z,51.30
2017-08-07T15:06:20.948Z,48.60
2017-08-07T15:08:50.002Z,49.60
2017-08-07T15:11:19.565Z,50.00
2017-08-07T15:13:48.706Z,51.80
2017-08-07T15:16:17.778Z,50.90
2017-08-07T15:18:46.804Z,50.70
2017-08-07T15:21:16.152Z,50.60
2017-08-07T15:23:45.248Z,50.50
2017-08-07T15:26:14.273Z,49.90
2017-08-07T15:28:43.329Z,50.60
2017-08-07T15:31:13.370Z,51.30
2017-08-07T15:33:42.595Z,51.50
2017-08-07T15:36:11.638Z,50.60
2017-08-07T15:38:40.752Z,50.10
2017-08-07T15:41:10.766Z,51.40
2017-08-07T15:43:39.864Z,49.40
2017-08-07T15:46:08.872Z,50.10
2017-08-07T15:48:37.960Z,54.40
2017-08-07T15:51:07.033Z,53.50
2017-08-07T15:53:36.668Z,51.10
2017-08-07T15:56:06.385Z,51.40
2017-08-07T15:58:35.450Z,51.50
2017-08-07T16:01:04.622Z,51.10
2017-08-07T16:03:33.793Z,52.60
2017-08-07T16:06:03.655Z,50.70
2017-08-07T16:08:32.635Z,51.60
2017-08-07T16:11:01.853Z,53.00
2017-08-07T16:13:30.953Z,52.50
2017-08-07T16:15:59.951Z,52.80
2017-08-07T16:18:29.000Z,52.30
2017-08-07T16:20:58.175Z,53.10
2017-08-07T16:23:27.216Z,55.30
2017-08-07T16:25:56.281Z,54.60
2017-08-07T16:28:25.238Z,53.30
2017-08-07T16:30:54.359Z,55.70
2017-08-07T16:33:24.047Z,54.90
2017-08-07T16:35:53.106Z,54.40
2017-08-07T16:38:22.119Z,54.10
2017-08-07T16:40:51.261Z,54.60
2017-08-07T16:43:20.627Z,55.40
2017-08-07T16:45:50.069Z,54.40
2017-08-07T16:48:19.545Z,56.00
2017-08-07T16:50:48.613Z,55.00
2017-08-07T16:53:17.750Z,55.30
2017-08-07T16:55:48.968Z,54.80
2017-08-07T16:58:17.965Z,57.40
2017-08-07T17:00:48.723Z,57.20
2017-08-07T17:03:18.091Z,59.90
2017-08-07T17:05:47.753Z,59.90
2017-08-07T17:08:17.311Z,59.20
2017-08-07T17:11:06.181Z,60.10
2017-08-07T17:13:38.862Z,58.60
2017-08-07T17:16:12.071Z,63.70
2017-08-07T17:18:41.418Z,62.80
2017-08-07T17:21:10.717Z,60.60
2017-08-07T17:23:51.337Z,66.40
2017-08-07T17:26:34.992Z,65.30
2017-08-07T17:29:06.891Z,66.00
2017-08-07T17:31:39.171Z,69.70
2017-08-07T17:34:09.536Z,66.70
2017-08-07T17:36:38.832Z,67.40
2017-08-07T17:39:10.246Z,65.60
2017-08-07T17:41:53.275Z,66.00
2017-08-07T17:44:22.820Z,70.00
2017-08-07T17:46:52.753Z,69.80
2017-08-07T17:49:22.836Z,68.00
2017-08-07T17:51:52.014Z,67.20
2017-08-07T17:54:21.460Z,71.80
2017-08-07T17:56:50.751Z,75.40
2017-08-07T17:59:19.812Z,76.90
2017-08-07T18:01:48.901Z,79.70
2017-08-07T18:04:18.291Z,81.20
2017-08-07T18:06:47.316Z,82.80
2017-08-07T18:09:16.477Z,82.50
2017-08-07T18:11:45.820Z,80.10
2017-08-07T18:14:14.829Z,82.00
2017-08-07T18:16:43.848Z,79.90
2017-08-07T18:19:12.982Z,82.10
2017-08-07T18:21:42.080Z,83.70
2017-08-07T18:24:11.115Z,86.40
2017-08-07T18:26:40.194Z,88.10
2017-08-07T18:29:09.372Z,90.10
2017-08-07T18:31:41.369Z,91.30
2017-08-07T18:34:11.576Z,92.40
2017-08-07T18:36:40.881Z,92.50
2017-08-07T18:39:11.015Z,92.70
2017-08-07T18:41:40.613Z,94.00
2017-08-07T18:44:09.667Z,94.80
2017-08-07T18:46:39.703Z,95.50
2017-08-07T18:49:09.004Z,94.70
2017-08-07T18:51:39.339Z,95.60
2017-08-07T18:54:09.701Z,96.60
2017-08-07T18:56:39.532Z,93.90
2017-08-07T18:59:08.831Z,94.20
2017-08-07T19:01:38.399Z,96.60
2017-08-07T19:04:09.100Z,96.90
2017-08-07T19:06:38.630Z,97.10
2017-08-07T19:09:08.851Z,97.00
2017-08-07T19:11:38.023Z,97.00
2017-08-07T19:14:07.444Z,96.60
2017-08-07T19:16:37.578Z,97.10
2017-08-07T19:19:07.180Z,97.70
2017-08-07T19:21:38.020Z,97.60
2017-08-07T19:24:07.406Z,99.20
2017-08-07T19:26:38.130Z,96.20
2017-08-07T19:29:10.429Z,96.10
2017-08-07T19:31:41.325Z,97.50
2017-08-07T19:34:10.439Z,98.60
2017-08-07T19:36:40.262Z,99.50
2017-08-07T19:39:09.442Z,98.30
2017-08-07T19:41:39.367Z,97.50
2017-08-07T19:44:08.519Z,97.60
2017-08-07T19:46:37.562Z,96.80
2017-08-07T19:49:06.623Z,96.70
2017-08-07T19:51:35.633Z,96.90
2017-08-07T19:54:15.750Z,98.70
2017-08-07T19:56:45.453Z,98.80
2017-08-07T19:59:18.369Z,99.40
2017-08-07T20:02:00.044Z,99.50
2017-08-07T20:04:29.055Z,99.80
2017-08-07T20:06:58.131Z,99.90
2017-08-07T20:09:27.580Z,99.90
2017-08-07T20:11:57.290Z,99.90
2017-08-07T20:14:26.325Z,99.90
2017-08-07T20:16:55.346Z,99.90
2017-08-07T20:19:24.668Z,99.90
2017-08-07T20:21:54.707Z,99.90
2017-08-07T20:24:23.694Z,99.90
2017-08-07T20:26:52.689Z,99.90
2017-08-07T20:29:21.692Z,99.90
2017-08-07T20:31:50.679Z,99.90
2017-08-07T20:34:20.126Z,99.90
2017-08-07T20:36:49.062Z,99.90
2017-08-07T20:39:18.068Z,99.90
2017-08-07T20:41:47.010Z,99.90
2017-08-07T20:44:16.967Z,99.90
2017-08-07T20:46:45.979Z,99.90
2017-08-07T20:49:14.932Z,99.90
2017-08-07T20:51:43.947Z,99.90
2017-08-07T20:54:12.938Z,99.90
2017-08-07T20:56:41.918Z,99.90
2017-08-07T20:59:11.781Z,99.90
2017-08-07T21:01:40.777Z,99.90
2017-08-07T21:04:09.810Z,99.90
2017-08-07T21:06:38.814Z,99.90
2017-08-07T21:09:07.830Z,99.90
2017-08-07T21:11:36.946Z,99.90
2017-08-07T21:14:05.982Z,99.90
2017-08-07T21:16:34.960Z,99.90
2017-08-07T21:19:04.025Z,99.90
2017-08-07T21:21:32.964Z,99.90
2017-08-07T21:24:01.942Z,99.90
2017-08-07T21:26:30.861Z,99.90
2017-08-07T21:28:59.818Z,99.90
2017-08-07T21:31:28.780Z,99.90
2017-08-07T21:33:57.782Z,99.90
2017-08-07T21:36:26.703Z,99.90
2017-08-07T21:38:55.706Z,99.90
2017-08-07T21:41:24.696Z,99.90
2017-08-07T21:43:53.641Z,99.90
2017-08-07T21:46:23.052Z,99.90
2017-08-07T21:48:52.032Z,99.90
2017-08-07T21:51:21.091Z,99.90
2017-08-07T21:53:50.445Z,99.90
2017-08-07T21:56:19.470Z,99.90
2017-08-07T21:58:48.555Z,99.90
2017-08-07T22:01:17.518Z,99.90
2017-08-07T22:03:46.523Z,99.90
2017-08-07T22:06:15.511Z,99.90
2017-08-07T22:08:44.467Z,99.90
2017-08-07T22:11:13.435Z,99.90
2017-08-07T22:13:42.392Z,99.90
2017-08-07T22:16:11.363Z,99.90
2017-08-07T22:18:40.318Z,99.90
2017-08-07T22:21:09.273Z,99.90
2017-08-07T22:23:38.202Z,99.90
2017-08-07T22:26:07.124Z,99.90
2017-08-07T22:28:36.047Z,99.90
2017-08-07T22:31:05.039Z,99.90
2017-08-07T22:33:33.993Z,99.90
2017-08-07T22:36:03.375Z,99.90
2017-08-07T22:39:51.760Z,99.90
2017-08-07T22:42:20.680Z,99.90
2017-08-07T22:44:49.618Z,99.90
2017-08-07T22:47:18.620Z,99.90
2017-08-07T22:49:47.533Z,99.90
2017-08-07T22:52:16.498Z,99.90
2017-08-07T22:54:45.426Z,99.90
2017-08-07T22:57:14.376Z,99.90
2017-08-07T22:59:43.320Z,99.90
2017-08-07T23:02:12.312Z,99.90
2017-08-07T23:04:41.203Z,99.90
2017-08-07T23:07:10.189Z,99.90
2017-08-07T23:09:39.228Z,99.90
2017-08-07T23:12:08.130Z,99.90
2017-08-07T23:14:37.066Z,99.90
2017-08-07T23:17:06.091Z,99.90
2017-08-07T23:19:35.051Z,99.90
2017-08-07T23:22:04.472Z,99.90
2017-08-07T23:24:33.378Z,99.90
2017-08-07T23:27:02.339Z,99.90
2017-08-07T23:29:31.267Z,99.90
2017-08-07T23:32:00.214Z,99.90
2017-08-07T23:35:48.486Z,99.90
2017-08-07T23:38:17.390Z,99.90
2017-08-07T23:40:46.295Z,99.90
2017-08-07T23:43:15.199Z,99.90
2017-08-07T23:45:44.078Z,99.90
2017-08-07T23:48:13.022Z,99.90
2017-08-07T23:50:42.013Z,99.90
2017-08-07T23:53:10.931Z,99.90
2017-08-07T23:55:39.843Z,99.90
2017-08-07T23:58:08.739Z,99.90
